Station info - map view · info · telemetry · weather · raw · status · beacons · messages · bulletins · browse · moving · my account
Callsign, ship name or locator: Clear       
It is possible to search using wildcards (*?) after a prefix. Example: OH*
APRS station DO1GER-9 - show graphs
Map loading...
Comment: 145.500MHz Gerhard
Mic-E message: In service
Location: 48°16.07' N 13°01.16' E - locator JN68MG24HG - show map - static map
257.2 yards Northeast bearing 57° from Simbach am Inn, Bavaria, Germany [?]
1.4 miles Northwest bearing 306° from Braunau am Inn, Politischer Bezirk Braunau am Inn, Upper Austria, Austria
58.3 miles West bearing 268° from Linz, Upper Austria, Austria
67.1 miles East bearing 82° from München (Muenchen), Regierungsbezirk Oberbayern, Bavaria, Germany
Last position: 2018-10-08 11:58:43 EDT (13d 12h37m ago)
2018-10-08 17:58:43 CEST local time at Simbach am Inn, Germany [?]
Altitude: 1171 ft
Course: 197°
Speed: 17 MPH
Device: Kenwood: TM-D710 (rig)
Last path: DO1GER-9>T8QV07 via WIDE1-1,WIDE2-2,qAU,OE5XBL-10 (good)
Positions stored: 14981
Other SSIDs: DO1GER-10 DO1GER-6 DO1GER-7
Stations near current position of DO1GER-9 - show more
callsign distance last heard - EDT      callsign distance last heard - EDT
DO1GER-10494.1 yards 206°2018-10-22 00:34:08 DO1GER-70.3 miles 207°2018-10-17 07:35:50
HB9FUT0.8 miles 124°2018-10-06 05:32:04 OE5DXL1.4 miles 144°2018-10-22 00:34:02
OE5DXL-101.4 miles 144°2018-10-22 00:08:22 OE5DXL-141.4 miles 144°2018-10-21 22:51:24
P29211841.4 miles 143°2018-09-28 11:47:06 P06201871.4 miles 143°2018-09-25 10:48:42
OE5XBN B1.7 miles 166°2018-10-22 00:30:15 OE5XBN-B1.7 miles 166°2018-10-22 00:30:25
DO1GER-62.6 miles 27°2018-10-17 09:55:15 OE5KTM4.3 miles 138°2018-10-22 00:30:17
OE5KTM-94.3 miles 139°2018-10-21 09:31:22 P06402455.4 miles 89°2018-10-02 10:01:44
OE5HPM-105.4 miles 141°2018-10-22 00:23:01 OE5HPM-95.4 miles 141°2018-10-21 11:44:10
OE5HPM-25.4 miles 141°2018-10-22 00:27:53 OE5HPM-255.4 miles 141°2018-10-16 16:33:52
OE5HPM-215.4 miles 141°2018-10-22 00:31:43 OE5HPM-85.4 miles 141°2018-10-10 23:35:26
Stations which heard DO1GER-9 directly on radio –
callsign pkts first heard - EDT last heard longest (tx => rx) longest at - EDT
OE2XHR-11 6 2018-10-08 10:26:19 2018-10-08 11:58:46 JN68HX > JN67MK 108.6 miles 170° 2018-10-08 10:26:19
OE5XDO-10 1 2018-10-08 10:38:53 2018-10-08 10:38:53 JN68HU > JN68VM 59.9 miles 114° 2018-10-08 10:38:53
DH2RL-2 3 2018-10-08 10:07:27 2018-10-08 10:12:05 JN69IB > JN68CQ 34.7 miles 221° 2018-10-08 10:08:38
OE2XZR-10 5 2018-10-08 11:36:11 2018-10-08 11:55:43 JN68LK > JN67NT 44.4 miles 170° 2018-10-08 11:36:11
OE5XBL-10 5 2018-10-08 10:00:28 2018-10-08 11:58:43 JN69IC > JN68PC 74.2 miles 158° 2018-10-08 10:00:28
DD0RJ-2 3 2018-10-08 10:11:36 2018-10-08 10:40:13 JN69IB > JN68IR 21.9 miles 181° 2018-10-08 10:11:36
DB0FFL-10 5 2018-10-08 10:04:20 2018-10-08 10:55:36 JN69IB > JN68EO 37.3 miles 207° 2018-10-08 10:08:05
OE5DRP 1 2018-10-08 11:29:56 2018-10-08 11:29:56 JN68KN > JN68XP 50.3 miles 83° 2018-10-08 11:29:56
DC9RD-10 13 2018-10-08 09:23:58 2018-10-08 09:59:28 JN69KG > JN69KB 13.4 miles 183° 2018-10-08 09:23:58
DB7MM-1 4 2018-10-08 09:08:20 2018-10-08 09:17:03 JN69LG > JN69MF 4.6 miles 110° 2018-10-08 09:17:03
DB0HHB 33 2018-10-08 09:07:20 2018-10-08 10:47:05 JN68HS > JN69LF 34.2 miles 22° 2018-10-08 10:47:05
OE5XHR-10 9 2018-10-08 10:41:20 2018-10-08 11:46:55 JN68HU > JN68XR 59.4 miles 96° 2018-10-08 10:41:20
OE5EBO-10 1 2018-10-08 11:48:27 2018-10-08 11:48:27 JN68LI > JN68KD 13.9 miles 195° 2018-10-08 11:48:27
DL1RDH-10 5 2018-10-08 09:46:36 2018-10-08 10:36:53 JN68HV > JN69KC 19.0 miles 43° 2018-10-08 10:36:53
OE2XWR-10 11 2018-10-08 10:08:30 2018-10-08 11:34:12 JN69IB > JN67IE 129.8 miles 181° 2018-10-08 10:08:30
DL6RBG-11 2 2018-10-08 11:09:36 2018-10-08 11:44:31 JN68IN > JN68QM 28.0 miles 95° 2018-10-08 11:09:36
DO1GER-10 1 2018-10-08 11:54:37 2018-10-08 11:54:37 JN68LG > JN68MG 1.4 miles 134° 2018-10-08 11:54:37
DO1SB-10 5 2018-10-08 09:27:32 2018-10-08 10:11:59 JN69IB > JN69KF 14.8 miles 30° 2018-10-08 10:11:59
DL2RDP-10 2 2018-10-08 09:19:10 2018-10-08 09:25:49 JN69LG > JN69KH 3.5 miles 309° 2018-10-08 09:19:10
DL3RMG-10 1 2018-10-08 09:07:51 2018-10-08 09:07:51 JN69MG > JN69LH 5.5 miles 311° 2018-10-08 09:07:51

Only position packets which were originated by the station are shown here. The range statistics show some extra long hops, because some digipeaters do not correctly add themselves to the digipeater path. Please check the raw packets.
About this site
This page shows real-time information collected from the Automatic Position Reporting System Internet network (APRS-IS). APRS is used by amateur (ham) radio operators to transmit real-time position information, weather data, telemetry and messages over the radio. A vehicle equipped with a GPS receiver, a VHF transmitter or HF transceiver and a small computer device called a tracker transmits it's location, speed and course in a small data packet, which is then received by a nearby iGate receiving site which forwards the packet on the Internet. Systems connected to the Internet can send information on the APRS-IS without a radio transmitter, or collect and display information transmitted anywhere in the world.
FAQ · Blog · Discussion group · Linking to aprs.fi · AIS sites · Service status · Database statistics · Advertising on aprs.fi · Technical details · API · Change log · Planned changes · Credits and thanks · Terms Of Service · iPhone/iPad APRS